createdAt,value
2019-04-29T00:00:57.828Z,29.16
2019-04-29T00:02:03.383Z,29.76
2019-04-29T00:03:08.450Z,29.48
2019-04-29T00:04:13.236Z,29.53
2019-04-29T00:05:17.919Z,29.46
2019-04-29T00:06:22.384Z,29.76
2019-04-29T00:07:27.404Z,29.95
2019-04-29T00:08:32.769Z,29.68
2019-04-29T00:09:37.579Z,29.56
2019-04-29T00:10:43.106Z,29.80
2019-04-29T00:11:48.199Z,29.78
2019-04-29T00:12:53.488Z,30.28
2019-04-29T00:13:58.774Z,30.00
2019-04-29T00:15:23.814Z,30.24
2019-04-29T00:16:43.165Z,30.13
2019-04-29T00:17:53.496Z,30.70
2019-04-29T00:19:20.168Z,30.38
2019-04-29T00:20:42.177Z,29.94
2019-04-29T00:21:47.818Z,29.65
2019-04-29T00:22:52.299Z,29.48
2019-04-29T00:24:03.516Z,29.39
2019-04-29T00:25:03.527Z,29.38
2019-04-29T00:26:08.042Z,29.40
2019-04-29T00:27:13.310Z,29.48
2019-04-29T00:28:18.089Z,29.61
2019-04-29T00:29:22.523Z,29.50
2019-04-29T00:30:27.838Z,29.41
2019-04-29T00:31:32.535Z,29.55
2019-04-29T00:32:37.499Z,29.76
2019-04-29T00:33:42.722Z,29.67
2019-04-29T00:34:47.980Z,30.14
2019-04-29T00:35:53.323Z,29.79
2019-04-29T00:37:05.622Z,29.93
2019-04-29T00:38:29.474Z,30.23
2019-04-29T00:39:52.545Z,29.51
2019-04-29T00:41:15.622Z,29.28
2019-04-29T00:42:33.126Z,30.04
2019-04-29T00:43:48.167Z,29.32
2019-04-29T00:44:53.116Z,29.58
2019-04-29T00:45:58.106Z,29.90
2019-04-29T00:47:03.130Z,30.33
2019-04-29T00:48:08.123Z,30.09
2019-04-29T00:49:13.396Z,30.13
2019-04-29T00:50:18.355Z,29.76
2019-04-29T00:51:23.424Z,29.48
2019-04-29T00:52:28.690Z,29.56
2019-04-29T00:53:33.974Z,28.95
2019-04-29T00:54:44.258Z,29.08
2019-04-29T00:55:50.884Z,29.38
2019-04-29T00:56:55.850Z,29.43
2019-04-29T00:58:00.610Z,30.02
2019-04-29T00:59:05.336Z,29.82
2019-04-29T01:00:13.387Z,29.71
2019-04-29T01:01:24.585Z,29.57
2019-04-29T01:02:29.308Z,29.58
2019-04-29T01:03:34.360Z,29.46
2019-04-29T01:04:39.328Z,29.23
2019-04-29T01:05:44.022Z,29.39
2019-04-29T01:06:49.290Z,29.42
2019-04-29T01:07:54.677Z,29.44
2019-04-29T01:09:00.029Z,28.69
2019-04-29T01:10:05.783Z,28.94
2019-04-29T01:11:10.797Z,28.90
2019-04-29T01:12:15.864Z,29.17
2019-04-29T01:13:21.234Z,29.46
2019-04-29T01:14:26.830Z,29.30
2019-04-29T01:15:31.323Z,29.57
2019-04-29T01:16:36.574Z,29.52
2019-04-29T01:17:41.541Z,30.23
2019-04-29T01:18:47.103Z,30.32
2019-04-29T01:19:51.784Z,30.20
2019-04-29T01:20:57.110Z,30.09
2019-04-29T01:22:02.800Z,30.45
2019-04-29T01:23:07.788Z,29.70
2019-04-29T01:24:12.756Z,29.93
2019-04-29T01:25:17.459Z,29.85
2019-04-29T01:26:34.357Z,30.52
2019-04-29T01:27:45.103Z,30.10
2019-04-29T01:28:52.911Z,29.84
2019-04-29T01:29:58.198Z,29.97
2019-04-29T01:31:06.663Z,29.84
2019-04-29T01:32:11.663Z,29.84
2019-04-29T01:33:16.872Z,30.51
2019-04-29T01:34:26.831Z,29.43
2019-04-29T01:35:32.386Z,29.54
2019-04-29T01:36:42.266Z,29.63
2019-04-29T01:37:47.261Z,29.58
2019-04-29T01:38:53.438Z,29.94
2019-04-29T01:40:29.735Z,29.98
2019-04-29T01:41:40.887Z,30.04
2019-04-29T01:42:45.861Z,29.32
2019-04-29T01:44:01.237Z,29.77
2019-04-29T01:45:06.018Z,29.71
2019-04-29T01:46:11.056Z,29.50
2019-04-29T01:47:16.020Z,29.39
2019-04-29T01:48:20.725Z,29.38
2019-04-29T01:49:25.776Z,29.40
2019-04-29T01:50:31.156Z,29.19
2019-04-29T01:51:36.242Z,29.35
2019-04-29T01:52:41.219Z,29.68
2019-04-29T01:53:46.871Z,29.48
2019-04-29T01:54:52.148Z,29.63
2019-04-29T01:55:57.127Z,29.74
2019-04-29T01:57:02.711Z,29.53
2019-04-29T01:58:08.407Z,29.96
2019-04-29T01:59:13.662Z,29.26
2019-04-29T02:00:18.644Z,29.63
2019-04-29T02:01:23.917Z,29.75
2019-04-29T02:02:29.499Z,29.31
2019-04-29T02:03:34.222Z,29.22
2019-04-29T02:04:39.715Z,29.22
2019-04-29T02:05:44.796Z,28.89
2019-04-29T02:06:49.854Z,28.77
2019-04-29T02:07:54.659Z,29.63
2019-04-29T02:08:59.384Z,29.62
2019-04-29T02:10:29.675Z,29.48
2019-04-29T02:11:34.743Z,30.01
2019-04-29T02:12:39.721Z,29.84
2019-04-29T02:13:45.261Z,29.13
2019-04-29T02:14:50.267Z,29.43
2019-04-29T02:15:55.845Z,29.28
2019-04-29T02:17:00.871Z,29.54
2019-04-29T02:18:06.376Z,29.65
2019-04-29T02:19:11.772Z,29.65
2019-04-29T02:20:16.852Z,30.03
2019-04-29T02:21:22.533Z,29.84
2019-04-29T02:22:34.233Z,29.72
2019-04-29T02:23:50.196Z,29.67
2019-04-29T02:24:59.341Z,29.88
2019-04-29T02:26:03.940Z,30.28
2019-04-29T02:27:08.625Z,29.61
2019-04-29T02:28:14.232Z,29.31
2019-04-29T02:29:19.711Z,29.91
2019-04-29T02:30:44.582Z,29.80
2019-04-29T02:31:49.373Z,29.38
2019-04-29T02:32:54.886Z,30.10
2019-04-29T02:33:59.849Z,30.47
2019-04-29T02:35:04.943Z,30.09
2019-04-29T02:36:09.882Z,29.55
2019-04-29T02:37:17.212Z,29.92
2019-04-29T02:38:41.366Z,30.04
2019-04-29T02:39:58.635Z,29.56
2019-04-29T02:41:12.612Z,30.14
2019-04-29T02:42:45.510Z,29.76
2019-04-29T02:43:52.197Z,30.07
2019-04-29T02:44:59.505Z,30.57
2019-04-29T02:46:04.516Z,30.26
2019-04-29T02:47:09.473Z,30.08
2019-04-29T02:48:14.419Z,29.86
2019-04-29T02:49:19.675Z,29.91
2019-04-29T02:50:24.743Z,29.74
2019-04-29T02:51:51.021Z,29.80
2019-04-29T02:52:56.031Z,29.64
2019-04-29T02:54:01.056Z,29.59
2019-04-29T02:55:07.307Z,30.13
2019-04-29T02:56:12.002Z,30.16
2019-04-29T02:57:24.381Z,30.11
2019-04-29T02:58:47.992Z,30.59
2019-04-29T02:59:55.595Z,30.41
2019-04-29T03:01:08.299Z,30.07
2019-04-29T03:02:30.579Z,29.96
2019-04-29T03:03:53.055Z,30.17
2019-04-29T03:05:13.650Z,29.91
2019-04-29T03:06:18.633Z,29.13
2019-04-29T03:07:23.083Z,29.09
2019-04-29T03:08:28.078Z,29.27
2019-04-29T03:09:34.903Z,29.12
2019-04-29T03:10:39.949Z,29.45
2019-04-29T03:11:45.265Z,29.59
2019-04-29T03:12:50.565Z,30.01
2019-04-29T03:13:55.847Z,30.03
2019-04-29T03:15:01.588Z,30.11
2019-04-29T03:16:06.057Z,30.59
2019-04-29T03:17:11.333Z,30.35
2019-04-29T03:18:16.639Z,30.86
2019-04-29T03:19:29.988Z,30.59
2019-04-29T03:20:41.352Z,30.62
2019-04-29T03:22:00.519Z,30.92
2019-04-29T03:23:10.374Z,30.58
2019-04-29T03:24:15.027Z,30.63
2019-04-29T03:25:20.542Z,30.33
2019-04-29T03:26:25.016Z,30.03
2019-04-29T03:27:29.978Z,30.49
2019-04-29T03:28:34.678Z,30.66
2019-04-29T03:29:39.640Z,30.64
2019-04-29T03:30:44.587Z,30.70
2019-04-29T03:31:49.568Z,30.65
2019-04-29T03:32:54.807Z,30.00
2019-04-29T03:34:00.010Z,30.13
2019-04-29T03:35:04.739Z,30.66
2019-04-29T03:36:09.812Z,30.70
2019-04-29T03:37:14.838Z,30.74
2019-04-29T03:38:19.795Z,31.29
2019-04-29T03:39:24.733Z,31.15
2019-04-29T03:40:29.453Z,30.95
2019-04-29T03:41:35.103Z,31.33
2019-04-29T03:42:40.732Z,31.14
2019-04-29T03:43:45.993Z,31.16
2019-04-29T03:44:51.560Z,30.62
2019-04-29T03:45:56.239Z,30.88
2019-04-29T03:47:01.230Z,31.10
2019-04-29T03:48:05.966Z,30.92
2019-04-29T03:49:10.960Z,30.98
2019-04-29T03:50:15.926Z,30.89
2019-04-29T03:51:20.416Z,30.73
2019-04-29T03:52:26.228Z,30.60
2019-04-29T03:53:31.573Z,30.55
2019-04-29T03:54:40.549Z,30.83
2019-04-29T03:55:45.652Z,31.09
2019-04-29T03:56:50.486Z,30.95
2019-04-29T03:57:55.416Z,30.85
2019-04-29T03:59:00.588Z,30.93
2019-04-29T04:00:06.175Z,31.08
2019-04-29T04:01:19.794Z,30.90
2019-04-29T04:02:34.191Z,31.27
2019-04-29T04:03:43.670Z,31.28
2019-04-29T04:05:11.707Z,31.70
2019-04-29T04:06:26.386Z,31.59
2019-04-29T04:07:56.103Z,31.57
2019-04-29T04:09:16.294Z,31.27
2019-04-29T04:10:21.554Z,31.51
2019-04-29T04:11:26.138Z,30.85
2019-04-29T04:12:31.180Z,31.54
2019-04-29T04:13:35.642Z,31.49
2019-04-29T04:14:40.949Z,32.08
2019-04-29T04:15:47.260Z,31.56
2019-04-29T04:17:12.093Z,31.35
2019-04-29T04:18:27.954Z,31.04
2019-04-29T04:19:32.757Z,31.39
2019-04-29T04:20:38.045Z,31.35
2019-04-29T04:21:42.805Z,31.28
2019-04-29T04:22:48.088Z,30.91
2019-04-29T04:23:53.372Z,30.69
2019-04-29T04:24:58.835Z,30.36
2019-04-29T04:26:03.548Z,30.19
2019-04-29T04:27:08.657Z,30.83
2019-04-29T04:28:13.975Z,30.89
2019-04-29T04:29:19.093Z,30.94
2019-04-29T04:30:24.120Z,31.23
2019-04-29T04:31:29.078Z,31.17
2019-04-29T04:32:33.866Z,30.78
2019-04-29T04:33:39.455Z,31.51
2019-04-29T04:34:45.057Z,30.90
2019-04-29T04:35:49.791Z,30.80
2019-04-29T04:36:54.536Z,31.08
2019-04-29T04:37:59.620Z,31.17
2019-04-29T04:39:04.916Z,30.90
2019-04-29T04:40:13.469Z,30.68
2019-04-29T04:41:18.708Z,31.08
2019-04-29T04:42:23.852Z,31.14
2019-04-29T04:43:28.978Z,30.72
2019-04-29T04:44:49.496Z,30.21
2019-04-29T04:45:55.017Z,30.43
2019-04-29T04:47:00.282Z,30.83
2019-04-29T04:48:05.787Z,30.21
2019-04-29T04:49:10.506Z,30.18
2019-04-29T04:50:15.187Z,30.52
2019-04-29T04:51:19.641Z,30.23
2019-04-29T04:52:24.901Z,30.28
2019-04-29T04:53:29.944Z,30.78
2019-04-29T04:54:35.220Z,31.14
2019-04-29T04:55:40.991Z,30.96
2019-04-29T04:56:46.541Z,30.47
2019-04-29T04:57:51.333Z,30.11
2019-04-29T04:58:56.896Z,30.19
2019-04-29T05:00:01.648Z,30.26
2019-04-29T05:01:06.754Z,30.21
2019-04-29T05:02:11.854Z,30.18
2019-04-29T05:03:16.892Z,30.39
2019-04-29T05:04:21.384Z,30.12
2019-04-29T05:05:26.223Z,30.04
2019-04-29T05:06:30.980Z,30.50
2019-04-29T05:07:36.138Z,30.58
2019-04-29T05:08:41.561Z,30.79
2019-04-29T05:09:46.687Z,30.40
2019-04-29T05:10:52.741Z,30.00
2019-04-29T05:11:59.093Z,30.30
2019-04-29T05:13:04.868Z,30.94
2019-04-29T05:14:09.390Z,30.70
2019-04-29T05:15:14.191Z,30.18
2019-04-29T05:16:18.977Z,29.83
2019-04-29T05:17:24.015Z,29.96
2019-04-29T05:18:29.040Z,30.15
2019-04-29T05:19:34.027Z,30.21
2019-04-29T05:20:39.045Z,30.38
2019-04-29T05:21:43.735Z,30.73
2019-04-29T05:23:00.909Z,30.38
2019-04-29T05:24:06.214Z,30.15
2019-04-29T05:25:11.514Z,30.28
2019-04-29T05:26:16.570Z,30.52
2019-04-29T05:27:21.061Z,30.60
2019-04-29T05:28:26.065Z,30.54
2019-04-29T05:29:31.076Z,30.56
2019-04-29T05:30:38.148Z,30.66
2019-04-29T05:31:43.200Z,30.75
2019-04-29T05:32:48.034Z,30.27
2019-04-29T05:33:53.718Z,31.16
2019-04-29T05:35:01.530Z,31.10
2019-04-29T05:36:19.050Z,31.16
2019-04-29T05:37:52.762Z,31.11
2019-04-29T05:39:04.242Z,31.00
2019-04-29T05:40:09.309Z,30.95
2019-04-29T05:41:14.389Z,30.42
2019-04-29T05:42:19.125Z,30.23
2019-04-29T05:43:32.046Z,29.99
2019-04-29T05:44:46.173Z,30.18
2019-04-29T05:46:07.214Z,29.98
2019-04-29T05:47:33.861Z,31.36
2019-04-29T05:48:39.104Z,30.83
2019-04-29T05:50:06.641Z,30.47
2019-04-29T05:51:29.281Z,30.18
2019-04-29T05:52:49.900Z,30.21
2019-04-29T05:53:56.005Z,30.10
2019-04-29T05:55:01.668Z,30.13
2019-04-29T05:56:06.722Z,30.08
2019-04-29T05:57:11.436Z,30.15
2019-04-29T05:58:16.427Z,30.53
2019-04-29T05:59:21.405Z,30.44
2019-04-29T06:00:26.167Z,30.28
2019-04-29T06:01:31.742Z,30.56
2019-04-29T06:02:38.831Z,30.42
2019-04-29T06:03:44.395Z,29.99
2019-04-29T06:04:52.495Z,29.83
2019-04-29T06:05:56.284Z,30.04
2019-04-29T06:07:01.012Z,29.79
2019-04-29T06:08:05.718Z,30.09
2019-04-29T06:09:15.985Z,30.14
2019-04-29T06:10:18.153Z,30.08
2019-04-29T06:11:23.985Z,29.88
2019-04-29T06:12:28.644Z,30.28
2019-04-29T06:13:33.908Z,29.58
2019-04-29T06:14:38.890Z,28.90
2019-04-29T06:15:43.859Z,27.83
2019-04-29T06:16:48.844Z,27.88
2019-04-29T06:17:54.466Z,25.77
2019-04-29T06:19:01.571Z,24.96
2019-04-29T06:20:06.047Z,24.39
2019-04-29T06:21:11.360Z,24.50
2019-04-29T06:22:16.063Z,25.48
2019-04-29T06:23:23.178Z,24.12
2019-04-29T06:24:28.143Z,23.89
2019-04-29T06:25:32.888Z,24.11
2019-04-29T06:26:37.365Z,24.29
2019-04-29T06:27:42.368Z,25.20
2019-04-29T06:28:47.365Z,25.65
2019-04-29T06:29:52.147Z,25.67
2019-04-29T06:30:56.934Z,25.36
2019-04-29T06:32:02.330Z,23.94
2019-04-29T06:33:07.129Z,23.83
2019-04-29T06:34:12.127Z,24.42
2019-04-29T06:35:17.484Z,23.91
2019-04-29T06:36:22.882Z,22.43
2019-04-29T06:37:28.025Z,20.11
2019-04-29T06:38:33.047Z,18.84
2019-04-29T06:39:38.062Z,18.80
2019-04-29T06:40:43.090Z,18.12
2019-04-29T06:41:48.088Z,18.61
2019-04-29T06:42:54.871Z,19.80
2019-04-29T06:44:00.600Z,19.67
2019-04-29T06:45:06.115Z,19.75
2019-04-29T06:46:10.828Z,20.38
2019-04-29T06:47:17.125Z,20.34
2019-04-29T06:48:22.194Z,20.44
2019-04-29T06:49:27.190Z,20.58
2019-04-29T06:50:31.947Z,20.37
2019-04-29T06:51:36.668Z,20.32
2019-04-29T06:52:41.468Z,20.14
2019-04-29T06:53:47.855Z,20.72
2019-04-29T06:54:53.737Z,21.34
2019-04-29T06:55:59.459Z,22.67
2019-04-29T06:57:04.470Z,23.02
2019-04-29T06:58:09.790Z,22.14
2019-04-29T06:59:15.215Z,21.87
2019-04-29T07:00:22.229Z,21.63
2019-04-29T07:01:33.038Z,21.37
2019-04-29T07:02:36.191Z,21.13
2019-04-29T07:03:41.233Z,20.41
2019-04-29T07:04:50.560Z,19.71
2019-04-29T07:05:55.043Z,19.22
2019-04-29T07:06:59.842Z,17.25
2019-04-29T07:08:05.120Z,17.25
2019-04-29T07:09:10.623Z,16.57
2019-04-29T07:10:16.617Z,16.21
2019-04-29T07:11:23.200Z,15.62
2019-04-29T07:12:27.912Z,14.73
2019-04-29T07:13:33.057Z,15.04
2019-04-29T07:14:38.709Z,15.80
2019-04-29T07:15:47.867Z,15.77
2019-04-29T07:16:51.356Z,15.82
2019-04-29T07:17:56.393Z,16.37
2019-04-29T07:19:01.708Z,15.09
2019-04-29T07:20:06.524Z,14.34
2019-04-29T07:21:12.966Z,13.62
2019-04-29T07:22:20.900Z,13.16
2019-04-29T07:23:25.671Z,13.79
2019-04-29T07:24:31.002Z,13.63
2019-04-29T07:25:36.890Z,14.25
2019-04-29T07:26:41.595Z,14.06
2019-04-29T07:27:46.386Z,13.71
2019-04-29T07:28:58.376Z,13.50
2019-04-29T07:30:01.707Z,12.58
2019-04-29T07:31:04.399Z,12.79
2019-04-29T07:32:10.669Z,12.50
2019-04-29T07:33:22.184Z,11.87
2019-04-29T07:34:22.843Z,11.56
2019-04-29T07:35:27.623Z,11.16
2019-04-29T07:36:32.977Z,11.52
2019-04-29T07:37:38.598Z,10.79
2019-04-29T07:38:46.463Z,10.90
2019-04-29T07:39:50.923Z,10.95
2019-04-29T07:40:55.638Z,10.47
2019-04-29T07:42:03.337Z,10.54
2019-04-29T07:43:09.276Z,10.85
2019-04-29T07:44:18.386Z,11.65
2019-04-29T07:45:28.163Z,12.04
2019-04-29T07:46:56.424Z,11.70
2019-04-29T07:47:56.188Z,12.76
2019-04-29T07:49:01.749Z,11.47
2019-04-29T07:50:02.001Z,10.49
2019-04-29T07:51:06.958Z,10.33
2019-04-29T07:52:14.420Z,10.39
2019-04-29T07:53:20.968Z,10.75
2019-04-29T07:54:25.642Z,10.28
2019-04-29T07:55:31.385Z,10.20
2019-04-29T07:56:37.949Z,10.27
2019-04-29T07:57:47.821Z,10.99
2019-04-29T07:58:51.045Z,10.79
2019-04-29T07:59:56.039Z,10.13
2019-04-29T08:01:01.127Z,10.30
2019-04-29T08:02:06.284Z,9.91
2019-04-29T08:03:10.782Z,10.11
2019-04-29T08:04:15.553Z,9.45
2019-04-29T08:05:20.033Z,9.63
2019-04-29T08:06:24.834Z,10.05
2019-04-29T08:07:29.562Z,9.94
2019-04-29T08:08:35.201Z,9.70
2019-04-29T08:09:44.164Z,11.16
2019-04-29T08:10:56.032Z,11.89
2019-04-29T08:11:54.028Z,13.37
2019-04-29T08:13:00.307Z,14.31
2019-04-29T08:14:05.364Z,15.35
2019-04-29T08:15:12.115Z,15.81
2019-04-29T08:16:18.472Z,16.13
2019-04-29T08:17:24.037Z,17.10
2019-04-29T08:18:29.106Z,16.86
2019-04-29T08:19:33.824Z,16.73
2019-04-29T08:20:39.890Z,17.02
2019-04-29T08:21:45.457Z,17.49
2019-04-29T08:22:52.290Z,18.74
2019-04-29T08:23:58.054Z,17.79
2019-04-29T08:25:03.096Z,17.10
2019-04-29T08:26:07.807Z,15.32
2019-04-29T08:27:12.694Z,14.07
2019-04-29T08:28:17.430Z,12.19
2019-04-29T08:29:21.925Z,10.88
2019-04-29T08:30:27.033Z,10.13
2019-04-29T08:31:31.966Z,9.67
2019-04-29T08:32:38.128Z,10.32
2019-04-29T08:33:46.654Z,10.23
2019-04-29T08:34:53.635Z,9.71
2019-04-29T08:35:57.090Z,9.17
2019-04-29T08:37:02.734Z,8.59
2019-04-29T08:38:07.973Z,8.30
2019-04-29T08:39:12.789Z,8.44
2019-04-29T08:40:19.048Z,8.19
2019-04-29T08:41:28.589Z,8.68
2019-04-29T08:42:37.298Z,8.01
2019-04-29T08:43:47.652Z,7.63
2019-04-29T08:45:17.749Z,7.91
2019-04-29T08:46:30.234Z,8.40
2019-04-29T08:47:37.704Z,9.71
2019-04-29T08:48:45.825Z,12.01
2019-04-29T08:49:49.357Z,10.67
2019-04-29T08:50:54.238Z,10.88
2019-04-29T08:51:59.697Z,10.00
2019-04-29T08:53:05.484Z,11.09
2019-04-29T08:54:10.434Z,10.67
2019-04-29T08:55:19.317Z,9.32
2019-04-29T08:56:23.039Z,8.75
2019-04-29T08:57:31.941Z,7.95
2019-04-29T08:58:34.884Z,7.12
2019-04-29T08:59:40.145Z,7.48
2019-04-29T09:00:44.873Z,7.80
2019-04-29T09:01:49.835Z,9.09
2019-04-29T09:02:57.007Z,11.50
2019-04-29T09:04:02.333Z,13.30
2019-04-29T09:05:11.255Z,11.47
2019-04-29T09:06:15.299Z,9.83
2019-04-29T09:07:22.181Z,11.80
2019-04-29T09:08:28.886Z,10.19
2019-04-29T09:09:35.566Z,8.52
2019-04-29T09:10:40.860Z,9.61
2019-04-29T09:11:47.890Z,10.85
2019-04-29T09:12:52.790Z,8.23
2019-04-29T09:13:57.956Z,7.55
2019-04-29T09:15:03.250Z,7.43
2019-04-29T09:16:08.457Z,7.12
2019-04-29T09:17:20.190Z,8.77
2019-04-29T09:18:19.683Z,8.36
2019-04-29T09:19:24.593Z,10.45
2019-04-29T09:20:29.417Z,10.31
2019-04-29T09:21:34.118Z,11.94
2019-04-29T09:22:42.538Z,13.41
2019-04-29T09:23:47.587Z,13.89
2019-04-29T09:25:10.431Z,14.61
2019-04-29T09:26:27.916Z,13.89
2019-04-29T09:27:32.746Z,9.79
2019-04-29T09:28:37.725Z,8.75
2019-04-29T09:29:46.172Z,8.62
2019-04-29T09:30:50.083Z,8.51
2019-04-29T09:31:54.869Z,7.77
2019-04-29T09:32:59.929Z,7.39
2019-04-29T09:34:06.703Z,7.66
2019-04-29T09:35:10.952Z,9.87
2019-04-29T09:36:15.659Z,8.68
2019-04-29T09:37:22.953Z,8.30
2019-04-29T09:38:26.678Z,8.31
2019-04-29T09:39:43.069Z,10.24
2019-04-29T09:40:45.784Z,12.24
2019-04-29T09:42:13.187Z,12.27
2019-04-29T09:43:32.774Z,12.93
2019-04-29T09:45:01.004Z,13.69
2019-04-29T09:46:34.557Z,14.47
2019-04-29T09:47:37.386Z,15.14
2019-04-29T09:48:42.241Z,12.94
2019-04-29T09:49:47.785Z,12.67
2019-04-29T09:50:52.791Z,10.88
2019-04-29T09:51:57.794Z,11.94
2019-04-29T09:53:02.593Z,13.24
2019-04-29T09:54:09.642Z,14.23
2019-04-29T09:55:14.295Z,15.85
2019-04-29T09:56:19.121Z,15.55
2019-04-29T09:57:24.232Z,16.50
2019-04-29T09:58:29.277Z,16.76
2019-04-29T09:59:39.661Z,15.55
2019-04-29T10:01:03.689Z,12.14
2019-04-29T10:02:26.267Z,10.23
2019-04-29T10:03:56.367Z,12.84
2019-04-29T10:05:19.037Z,12.54
2019-04-29T10:06:27.520Z,11.71
2019-04-29T10:07:32.736Z,12.11
2019-04-29T10:08:37.795Z,9.71
2019-04-29T10:09:56.179Z,8.58
2019-04-29T10:10:49.504Z,8.28
2019-04-29T10:11:54.627Z,7.41
2019-04-29T10:12:59.710Z,9.34
2019-04-29T10:14:19.772Z,11.62
2019-04-29T10:15:43.771Z,13.42
2019-04-29T10:17:11.243Z,14.40
2019-04-29T10:18:25.212Z,14.37
2019-04-29T10:19:35.954Z,14.88
2019-04-29T10:20:53.247Z,15.74
2019-04-29T10:21:58.047Z,15.77
2019-04-29T10:23:03.260Z,15.94
2019-04-29T10:24:08.622Z,13.06
2019-04-29T10:25:13.367Z,10.90
2019-04-29T10:26:18.097Z,9.64
2019-04-29T10:27:22.893Z,8.87
2019-04-29T10:28:28.314Z,7.79
2019-04-29T10:29:33.293Z,7.53
2019-04-29T10:30:38.085Z,6.87
2019-04-29T10:31:42.593Z,7.33
2019-04-29T10:32:47.676Z,7.00
2019-04-29T10:33:54.811Z,7.13
2019-04-29T10:35:03.785Z,7.32
2019-04-29T10:36:07.498Z,8.63
2019-04-29T10:37:12.047Z,7.41
2019-04-29T10:38:17.394Z,9.17
2019-04-29T10:39:34.466Z,11.50
2019-04-29T10:41:00.555Z,10.19
2019-04-29T10:42:05.398Z,10.88
2019-04-29T10:43:28.083Z,8.92
2019-04-29T10:45:01.208Z,8.01
2019-04-29T10:46:24.815Z,10.99
2019-04-29T10:47:43.125Z,12.21
2019-04-29T10:48:59.092Z,14.23
2019-04-29T10:50:10.543Z,13.32
2019-04-29T10:51:16.424Z,14.97
2019-04-29T10:52:21.261Z,14.70
2019-04-29T10:53:28.790Z,15.07
2019-04-29T10:54:34.253Z,14.83
2019-04-29T10:55:39.613Z,15.43
2019-04-29T10:56:44.306Z,16.08
2019-04-29T10:57:49.957Z,14.19
2019-04-29T10:58:56.364Z,13.09
2019-04-29T11:00:08.705Z,11.65
2019-04-29T11:02:00.666Z,10.05
2019-04-29T11:02:55.229Z,9.64
2019-04-29T11:04:26.836Z,9.79
2019-04-29T11:05:37.463Z,8.27
2019-04-29T11:06:44.038Z,10.37
2019-04-29T11:07:49.245Z,13.12
2019-04-29T11:09:03.260Z,13.73
2019-04-29T11:10:25.264Z,13.28
2019-04-29T11:11:27.353Z,14.66
2019-04-29T11:12:32.353Z,15.64
2019-04-29T11:13:46.819Z,16.63
2019-04-29T11:14:44.315Z,16.71
2019-04-29T11:15:51.263Z,16.02
2019-04-29T11:16:56.535Z,12.32
2019-04-29T11:18:03.500Z,12.51
2019-04-29T11:19:08.185Z,11.07
2019-04-29T11:20:15.863Z,10.16
2019-04-29T11:21:19.921Z,10.57
2019-04-29T11:22:27.543Z,9.47
2019-04-29T11:23:57.003Z,8.46
2019-04-29T11:25:15.816Z,7.71
2019-04-29T11:26:33.120Z,8.53
2019-04-29T11:27:44.769Z,7.72
2019-04-29T11:28:51.173Z,9.35
2019-04-29T11:29:58.607Z,11.01
2019-04-29T11:31:02.531Z,11.88
2019-04-29T11:32:11.997Z,13.42
2019-04-29T11:33:22.576Z,10.50
2019-04-29T11:34:48.437Z,8.97
2019-04-29T11:36:04.120Z,8.05
2019-04-29T11:37:07.073Z,7.53
2019-04-29T11:38:12.187Z,8.14
2019-04-29T11:39:17.232Z,9.02
2019-04-29T11:40:26.048Z,9.24
2019-04-29T11:41:31.720Z,7.76
2019-04-29T11:42:41.343Z,9.38
2019-04-29T11:43:46.611Z,8.68
2019-04-29T11:44:49.795Z,8.18
2019-04-29T11:45:55.273Z,7.87
2019-04-29T11:47:00.083Z,7.14
2019-04-29T11:48:04.997Z,7.27
2019-04-29T11:49:10.165Z,7.45
2019-04-29T11:50:26.908Z,7.63
2019-04-29T11:51:48.569Z,7.40
2019-04-29T11:52:41.944Z,6.56
2019-04-29T11:53:46.693Z,8.22
2019-04-29T11:54:54.142Z,8.51
2019-04-29T11:55:59.133Z,8.11
2019-04-29T11:57:04.162Z,7.17
2019-04-29T11:58:16.353Z,8.13
2019-04-29T11:59:49.350Z,9.22
2019-04-29T12:01:10.783Z,11.30
2019-04-29T12:02:24.582Z,12.34
2019-04-29T12:03:32.822Z,11.96
2019-04-29T12:04:42.225Z,12.21
2019-04-29T12:05:54.909Z,12.44
2019-04-29T12:06:59.643Z,12.90
2019-04-29T12:08:11.446Z,12.50
2019-04-29T12:09:11.521Z,13.45
2019-04-29T12:10:16.797Z,13.74
2019-04-29T12:11:22.034Z,13.84
2019-04-29T12:12:29.884Z,14.26
2019-04-29T12:13:58.843Z,15.03
2019-04-29T12:15:20.063Z,14.94
2019-04-29T12:16:32.045Z,15.69
2019-04-29T12:17:41.194Z,16.22
2019-04-29T12:19:08.123Z,16.39
2019-04-29T12:20:22.709Z,16.19
2019-04-29T12:21:32.908Z,16.44
2019-04-29T12:22:48.239Z,15.87
2019-04-29T12:23:47.739Z,16.41
2019-04-29T12:24:52.042Z,15.61
2019-04-29T12:25:58.686Z,15.65
2019-04-29T12:27:04.678Z,15.35
2019-04-29T12:28:18.943Z,15.77
2019-04-29T12:29:18.369Z,15.66
2019-04-29T12:30:29.901Z,15.44
2019-04-29T12:31:44.847Z,15.41
2019-04-29T12:33:00.851Z,15.34
2019-04-29T12:34:16.945Z,16.22
2019-04-29T12:35:29.974Z,16.76
2019-04-29T12:36:36.751Z,16.16
2019-04-29T12:38:00.651Z,16.49
2019-04-29T12:39:42.758Z,16.76
2019-04-29T12:41:20.612Z,16.29
2019-04-29T12:42:40.199Z,16.95
2019-04-29T12:44:13.813Z,16.18
2019-04-29T12:45:24.665Z,16.90
2019-04-29T12:46:48.600Z,16.54
2019-04-29T12:47:53.945Z,16.37
2019-04-29T12:48:58.969Z,16.47
2019-04-29T12:50:04.128Z,17.02
2019-04-29T12:51:09.482Z,18.22
2019-04-29T12:52:13.968Z,17.17
2019-04-29T12:53:19.022Z,16.65
2019-04-29T12:54:24.572Z,17.18
2019-04-29T12:55:45.140Z,17.05
2019-04-29T12:56:47.744Z,16.33
2019-04-29T12:57:51.757Z,17.05
2019-04-29T12:58:59.571Z,16.86
2019-04-29T13:00:07.552Z,17.75
2019-04-29T13:01:23.219Z,18.00
2019-04-29T13:02:47.457Z,17.64
2019-04-29T13:04:01.512Z,17.96
2019-04-29T13:05:22.922Z,17.71
2019-04-29T13:06:49.862Z,17.59
2019-04-29T13:07:58.997Z,17.60
2019-04-29T13:09:17.561Z,17.07
2019-04-29T13:10:22.740Z,17.54
2019-04-29T13:11:36.102Z,17.66
2019-04-29T13:12:35.470Z,18.90
2019-04-29T13:13:40.019Z,17.73
2019-04-29T13:15:02.568Z,17.19
2019-04-29T13:16:22.170Z,17.39
2019-04-29T13:17:34.778Z,17.18
2019-04-29T13:19:19.969Z,16.80
2019-04-29T13:20:20.394Z,16.51
2019-04-29T13:21:25.603Z,16.76
2019-04-29T13:22:30.981Z,16.59
2019-04-29T13:23:55.166Z,17.14
2019-04-29T13:24:44.522Z,17.12
2019-04-29T13:25:50.901Z,16.95
2019-04-29T13:30:23.260Z,17.16
2019-04-29T13:31:38.979Z,17.52
2019-04-29T13:32:44.100Z,17.33
2019-04-29T13:33:51.026Z,17.04
2019-04-29T13:35:00.315Z,17.10
2019-04-29T13:36:04.604Z,17.04
2019-04-29T13:37:18.254Z,17.51
2019-04-29T13:38:16.068Z,17.28
2019-04-29T13:39:38.444Z,16.98
2019-04-29T13:40:27.949Z,17.46
2019-04-29T13:41:33.272Z,17.65
2019-04-29T13:42:38.309Z,17.89
2019-04-29T13:43:43.643Z,17.22
2019-04-29T13:45:05.343Z,17.68
2019-04-29T13:46:05.503Z,17.87
2019-04-29T13:47:44.230Z,18.32
2019-04-29T13:49:12.854Z,18.04
2019-04-29T13:50:34.243Z,18.00
2019-04-29T13:51:35.650Z,18.20
2019-04-29T13:52:33.597Z,17.51
2019-04-29T13:53:38.069Z,17.23
2019-04-29T13:54:44.287Z,16.96
2019-04-29T13:55:49.914Z,17.17
2019-04-29T13:56:56.775Z,17.74
2019-04-29T13:58:01.802Z,18.39
2019-04-29T13:59:10.739Z,18.03
2019-04-29T14:00:46.906Z,18.49
2019-04-29T14:02:14.790Z,18.48
2019-04-29T14:03:24.834Z,17.89
2019-04-29T14:04:33.726Z,17.47
2019-04-29T14:05:41.507Z,17.54
2019-04-29T14:06:56.566Z,17.68
2019-04-29T14:07:54.269Z,17.85
2019-04-29T14:08:59.963Z,17.77
2019-04-29T14:10:10.198Z,17.70
2019-04-29T14:11:14.087Z,17.43
2019-04-29T14:12:47.045Z,17.36
2019-04-29T14:13:25.503Z,17.51
2019-04-29T14:14:30.995Z,17.47
2019-04-29T14:15:40.361Z,18.51
2019-04-29T14:16:47.633Z,19.09
2019-04-29T14:17:51.197Z,18.83
2019-04-29T14:18:56.268Z,18.23
2019-04-29T14:20:01.065Z,18.47
2019-04-29T14:21:05.804Z,18.75
2019-04-29T14:22:21.427Z,19.02
2019-04-29T14:23:17.025Z,18.39
2019-04-29T14:24:24.028Z,17.96
2019-04-29T14:25:28.811Z,17.38
2019-04-29T14:26:36.817Z,17.62
2019-04-29T14:27:40.290Z,17.55
2019-04-29T14:28:45.335Z,17.42
2019-04-29T14:29:51.527Z,17.43
2019-04-29T14:30:57.030Z,17.53
2019-04-29T14:32:02.089Z,17.73
2019-04-29T14:33:07.316Z,18.28
2019-04-29T14:34:20.801Z,18.71
2019-04-29T14:35:36.818Z,18.27
2019-04-29T14:36:43.538Z,18.67
2019-04-29T14:38:00.024Z,18.38
2019-04-29T14:38:55.313Z,18.33
2019-04-29T14:40:02.768Z,18.65
2019-04-29T14:41:06.815Z,18.29
2019-04-29T14:42:30.174Z,18.42
2019-04-29T14:43:50.532Z,17.93
2019-04-29T14:45:27.876Z,17.62
2019-04-29T14:46:50.363Z,18.11
2019-04-29T14:48:12.943Z,17.60